Terminal Aerodrome Forecast
Issued by NWS

Home | Current Version | Previous Version | Text Only | Print | Product List | Glossary On
Versions: 1 2 3 4 5 6 7 8 9 10 11 12 13 14 15 16 17 18 19
000
FTUS44 KBMX 271935 AAA
TAFANB
TAF AMD
KANB 271935Z 2720/2818 20009G16KT P6SM VCTS BKN040CB
      TEMPO 2722/2802 2SM TSRA BKN025CB OVC040
     FM280700 22005KT 4SM BR OVC020
     FM281500 24005KT P6SM BKN030=

USA.gov is the U.S. government's official web portal to all federal, state and local government web resources and services.